• Join FlightAware (Why Join?)
  • Login
  • US Flag 
08:07PM EDT


 

Airport Tracker/Info


-or-


 

Live Flight TrackerFlight Track Log ✈ N309JB ✈ 10-May-2012 ✈ KBOS - KBWI

Flight Track Log - Related Links

Times and Time Zones

All times are in EDT time to prevent confusion due to time zone crossing. See the N309JB flight status page for this flight to view local times or setup timezone preferences in your user account.

Time Position Orientation Groundspeed Altitude Reporting Facility
EDT Latitude Longitude Course Direction KTS MPH feet Rate Location/Type
05:49PM 42.3500 -71.0167 130° Southeast 144 166 800  Level Boston TRACON
05:54PM 42.1983 -70.7697 260° West 243 280 13,000 2,100 Climbing Boston Center
05:55PM 42.1833 -70.8794 267° West 235 270 14,000 1,140 Climbing Boston Center
05:56PM 42.1786 -70.9917 261° West 306 352 15,300 2,340 Climbing Boston Center
05:57PM 42.1636 -71.1236 262° West 329 379 18,700 2,940 Climbing Boston Center
05:58PM 42.1503 -71.2528 259° West 337 388 21,200 2,160 Climbing Boston Center
05:59PM 42.1328 -71.3792 259° West 337 388 23,100 1,800 Climbing Boston Center
06:00PM 42.1153 -71.5053 261° West 342 394 24,900 1,680 Climbing Boston Center
06:01PM 42.0994 -71.6342 260° West 348 400 26,500 1,320 Climbing Boston Center
06:02PM 42.0817 -71.7744 256° West 367 422 27,600 1,140 Climbing Boston Center
06:03PM 42.0575 -71.9089 258° West 373 429 28,800 1,200 Climbing Boston Center
06:04PM 42.0350 -72.0517 257° West 379 436 30,100 1,320 Climbing Boston Center
06:05PM 42.0103 -72.1914 238° Southwest 384 442 31,500 900 Climbing Boston Center
06:06PM 41.9564 -72.3061 235° Southwest 363 418 32,000 240 Climbing Boston Center
06:07PM 41.8981 -72.4178 236° Southwest 368 423 32,000  Level Boston Center
06:08PM 41.8378 -72.5375 234° Southwest 381 438 32,000 -420 Level Boston Center
06:09PM 41.7728 -72.6572 236° Southwest 393 452 31,200 -900 Descending Boston Center
06:10PM 41.7122 -72.7767 234° Southwest 399 459 30,200 -1,020 Descending Boston Center
06:11PM 41.6514 -72.8875 235° Southwest 393 452 29,200 -1,020 Descending Boston Center
06:12PM 41.5925 -72.9981 236° Southwest 381 438 28,200 -600 Descending Boston Center
06:13PM 41.5378 -73.1058 234° Southwest 369 425 28,000 -120 Descending Boston Center
06:14PM 41.4808 -73.2103 235° Southwest 364 419 28,000  Level Boston Center
06:15PM 41.4281 -73.3094 235° Southwest 359 413 28,000  Level Boston Center
06:16PM 41.3708 -73.4192 234° Southwest 359 413 28,000  Level Boston Center
06:19PM 41.2281 -73.6761 231° Southwest 357 411 28,000  Level New York Center
06:20PM 41.1650 -73.7808 231° Southwest 357 411 28,000  Level New York Center
06:21PM 41.0908 -73.9042 231° Southwest 362 417 28,000  Level New York Center
06:22PM 41.0297 -74.0058 231° Southwest 362 417 28,000  Level New York Center
06:23PM 40.9686 -74.1072 231° Southwest 362 417 28,000  Level New York Center
06:24PM 40.9139 -74.1981 232° Southwest 362 417 28,000  Level New York Center
06:25PM 40.8506 -74.3044 232° Southwest 367 422 28,000  Level New York Center
06:26PM 40.7781 -74.4267 229° Southwest 362 417 28,000  Level New York Center
06:27PM 40.7144 -74.5247 229° Southwest 362 417 28,000  Level New York Center
06:28PM 40.6486 -74.6250 228° Southwest 362 417 28,000  Level New York Center
06:29PM 40.5831 -74.7222 228° Southwest 362 417 28,000 -660 Level New York Center
06:30PM 40.5172 -74.8197 227° Southwest 362 417 26,600 -1,800 Descending New York Center
06:31PM 40.4317 -74.9400 227° Southwest 356 410 24,200 -2,040 Descending New York Center
06:32PM 40.3725 -75.0236 229° Southwest 356 410 22,500 -1,860 Descending New York Center
06:33PM 40.3042 -75.1256 228° Southwest 351 404 20,500 -1,740 Descending New York Center
06:34PM 40.2489 -75.2064 228° Southwest 343 395 19,000 -780 Descending New York Center
06:35PM 40.1850 -75.3000 227° Southwest 348 400 19,000  Level New York Center
06:36PM 40.1144 -75.3986 227° Southwest 348 400 19,000  Level New York Center
06:37PM 40.0569 -75.4789 226° Southwest 348 400 19,000  Level New York Center
06:38PM 39.9864 -75.5744 228° Southwest 348 400 19,000  Level New York Center
06:39PM 39.9289 -75.6569 233° Southwest 343 395 19,000 -180 Level New York Center
06:40PM 39.8681 -75.7636 235° Southwest 342 394 18,700 -1,140 Descending New York Center
06:42PM 39.7667 -75.9500 237° Southwest 327 376 15,700 -1,980 Descending Potomac TRACON
06:43PM 39.7167 -76.0500 237° Southwest 333 383 13,000 -2,100 Descending Potomac TRACON
06:44PM 39.6667 -76.1500 218° Southwest 289 333 11,500 -1,680 Descending Potomac TRACON
06:45PM 39.6000 -76.2167 218° Southwest 276 318 9,700 -1,740 Descending Potomac TRACON
06:46PM 39.5500 -76.2667 218° Southwest 271 312 8,200 -1,620 Descending Potomac TRACON
06:48PM 39.4333 -76.3833 201° Southwest 262 302 5,000 -1,140 Descending Potomac TRACON
06:49PM 39.3667 -76.4167 180° South 282 325 4,800 -480 Descending Potomac TRACON
06:50PM 39.2833 -76.4167 201° Southwest 280 322 4,000 -660 Descending Potomac TRACON
06:51PM 39.2167 -76.4500 201° Southwest 253 291 3,500 -540 Descending Potomac TRACON
06:52PM 39.1500 -76.4833 207° Southwest 239 275 3,000 -660 Descending Potomac TRACON
06:53PM 39.1000 -76.5167 270° West 202 232 2,200 -780 Descending Potomac TRACON
06:54PM 39.1000 -76.5667 293° West 166 191 1,500 -420 Descending Potomac TRACON
06:55PM 39.1167 -76.6167 322° Northwest 144 166 1,400 -420 Descending Potomac TRACON
06:56PM 39.1500 -76.6500 322° Northwest 125 144 700 -660 Descending Potomac TRACON